createdAt,value
2022-11-07T00:01:29.067Z,61.40
2022-11-07T00:03:56.326Z,60.70
2022-11-07T00:06:23.836Z,61.60
2022-11-07T00:08:53.994Z,61.00
2022-11-07T00:11:20.920Z,60.90
2022-11-07T00:13:47.731Z,61.10
2022-11-07T00:16:14.570Z,60.70
2022-11-07T00:18:41.394Z,61.80
2022-11-07T00:21:09.911Z,62.50
2022-11-07T00:23:39.893Z,61.30
2022-11-07T00:26:10.205Z,60.60
2022-11-07T00:28:38.285Z,60.70
2022-11-07T00:31:06.829Z,60.50
2022-11-07T00:33:33.853Z,60.50
2022-11-07T00:36:00.917Z,60.60
2022-11-07T00:38:27.992Z,60.40
2022-11-07T00:41:05.981Z,60.40
2022-11-07T00:43:33.175Z,61.10
2022-11-07T00:46:04.815Z,61.60
2022-11-07T00:48:32.642Z,60.40
2022-11-07T00:51:16.813Z,60.40
2022-11-07T00:53:44.308Z,61.40
2022-11-07T00:56:13.380Z,61.20
2022-11-07T00:58:42.652Z,61.30
2022-11-07T01:01:15.298Z,61.10
2022-11-07T01:04:01.434Z,61.50
2022-11-07T01:06:33.089Z,61.80
2022-11-07T01:09:00.379Z,60.80
2022-11-07T01:11:29.481Z,60.70
2022-11-07T01:14:01.805Z,60.60
2022-11-07T01:16:29.520Z,60.50
2022-11-07T01:18:57.128Z,61.00
2022-11-07T01:21:24.107Z,60.40
2022-11-07T01:23:51.074Z,61.40
2022-11-07T01:26:18.441Z,60.80
2022-11-07T01:28:45.349Z,59.80
2022-11-07T01:31:15.378Z,60.60
2022-11-07T01:33:42.587Z,60.40
2022-11-07T01:36:15.334Z,60.60
2022-11-07T01:38:45.267Z,60.90
2022-11-07T01:41:27.140Z,61.10
2022-11-07T01:44:01.979Z,60.60
2022-11-07T01:46:35.467Z,61.10
2022-11-07T01:49:22.570Z,60.90
2022-11-07T01:52:04.268Z,60.50
2022-11-07T01:55:16.097Z,61.10
2022-11-07T01:57:50.426Z,60.90
2022-11-07T02:00:20.525Z,62.00
2022-11-07T02:02:50.784Z,61.80
2022-11-07T02:05:23.995Z,61.00
2022-11-07T02:07:51.213Z,61.10
2022-11-07T02:10:19.681Z,60.60
2022-11-07T02:12:46.597Z,61.10
2022-11-07T02:15:13.468Z,60.20
2022-11-07T02:17:40.744Z,61.00
2022-11-07T02:20:08.237Z,60.20
2022-11-07T02:22:37.918Z,60.40
2022-11-07T02:25:08.785Z,60.50
2022-11-07T02:27:37.326Z,61.00
2022-11-07T02:30:11.437Z,60.20
2022-11-07T02:32:38.636Z,60.50
2022-11-07T02:35:27.551Z,60.20
2022-11-07T02:37:54.992Z,61.40
2022-11-07T02:40:22.163Z,59.80
2022-11-07T02:42:49.055Z,60.10
2022-11-07T02:45:28.556Z,59.80
2022-11-07T02:47:55.763Z,61.50
2022-11-07T02:50:22.963Z,60.40
2022-11-07T02:52:49.843Z,59.70
2022-11-07T02:55:17.279Z,60.20
2022-11-07T02:57:44.241Z,60.30
2022-11-07T03:00:13.743Z,60.20
2022-11-07T03:02:46.922Z,60.60
2022-11-07T03:05:15.517Z,60.70
2022-11-07T03:07:43.591Z,60.70
2022-11-07T03:10:11.670Z,60.10
2022-11-07T03:12:38.813Z,60.80
2022-11-07T03:15:08.992Z,60.50
2022-11-07T03:17:36.092Z,60.50
2022-11-07T03:20:03.996Z,60.70
2022-11-07T03:22:30.882Z,60.50
2022-11-07T03:24:57.714Z,61.20
2022-11-07T03:27:24.582Z,60.20
2022-11-07T03:29:51.421Z,60.70
2022-11-07T03:32:18.282Z,60.80
2022-11-07T03:34:45.210Z,60.80
2022-11-07T03:37:12.027Z,60.60
2022-11-07T03:39:38.895Z,60.70
2022-11-07T03:42:06.060Z,61.20
2022-11-07T03:44:32.875Z,61.10
2022-11-07T03:46:59.730Z,60.40
2022-11-07T03:49:27.057Z,62.00
2022-11-07T03:51:54.012Z,61.30
2022-11-07T03:54:20.822Z,61.10
2022-11-07T03:56:47.813Z,61.20
2022-11-07T03:59:14.674Z,61.30
2022-11-07T04:01:41.709Z,60.70
2022-11-07T04:04:09.109Z,61.30
2022-11-07T04:06:35.888Z,61.80
2022-11-07T04:09:03.218Z,60.30
2022-11-07T04:11:48.789Z,60.70
2022-11-07T04:14:34.429Z,61.10
2022-11-07T04:17:19.406Z,61.70
2022-11-07T04:19:47.642Z,61.00
2022-11-07T04:22:14.722Z,61.60
2022-11-07T04:24:45.794Z,61.00
2022-11-07T04:27:33.045Z,61.00
2022-11-07T04:30:18.852Z,60.80
2022-11-07T04:32:51.582Z,61.50
2022-11-07T04:35:20.539Z,61.40
2022-11-07T04:37:47.954Z,61.90
2022-11-07T04:40:16.433Z,61.70
2022-11-07T04:42:44.714Z,61.00
2022-11-07T04:45:12.625Z,61.90
2022-11-07T04:47:40.711Z,62.40
2022-11-07T04:50:12.631Z,61.70
2022-11-07T04:52:39.813Z,61.80
2022-11-07T04:55:08.320Z,61.30
2022-11-07T04:57:35.169Z,61.80
2022-11-07T05:00:02.650Z,61.80
2022-11-07T05:02:29.530Z,62.50
2022-11-07T05:04:56.367Z,61.80
2022-11-07T05:07:23.305Z,62.10
2022-11-07T05:09:50.089Z,62.00
2022-11-07T05:12:16.938Z,61.90
2022-11-07T05:14:43.763Z,61.50
2022-11-07T05:17:15.358Z,62.00
2022-11-07T05:19:47.801Z,62.20
2022-11-07T05:22:33.278Z,61.90
2022-11-07T05:25:00.199Z,61.70
2022-11-07T05:27:26.984Z,62.10
2022-11-07T05:29:53.844Z,62.40
2022-11-07T05:32:20.640Z,62.10
2022-11-07T05:34:47.664Z,62.50
2022-11-07T05:37:15.050Z,61.90
2022-11-07T05:39:41.835Z,62.50
2022-11-07T05:42:08.923Z,62.10
2022-11-07T05:44:35.814Z,62.30
2022-11-07T05:47:02.745Z,62.30
2022-11-07T05:49:29.589Z,61.80
2022-11-07T05:51:57.222Z,61.20
2022-11-07T05:54:24.775Z,61.90
2022-11-07T05:56:56.379Z,61.60
2022-11-07T05:59:23.246Z,61.00
2022-11-07T06:01:51.178Z,62.40
2022-11-07T06:04:18.652Z,61.70
2022-11-07T06:06:45.495Z,60.90
2022-11-07T06:09:12.337Z,62.90
2022-11-07T06:11:39.137Z,62.80
2022-11-07T06:14:06.190Z,62.50
2022-11-07T06:16:33.079Z,62.80
2022-11-07T06:18:59.871Z,63.10
2022-11-07T06:21:26.686Z,63.30
2022-11-07T06:23:53.573Z,63.60
2022-11-07T06:26:20.418Z,63.80
2022-11-07T06:28:47.263Z,64.30
2022-11-07T06:31:14.103Z,64.60
2022-11-07T06:33:42.148Z,64.60
2022-11-07T06:36:11.975Z,64.30
2022-11-07T06:38:39.817Z,65.00
2022-11-07T06:41:12.089Z,64.60
2022-11-07T06:43:40.093Z,64.80
2022-11-07T06:46:12.477Z,64.80
2022-11-07T06:48:40.032Z,64.90
2022-11-07T06:51:09.774Z,65.10
2022-11-07T06:53:37.227Z,65.20
2022-11-07T06:56:06.317Z,65.20
2022-11-07T06:58:33.697Z,65.40
2022-11-07T07:01:06.011Z,65.30
2022-11-07T07:03:32.945Z,65.50
2022-11-07T07:06:05.918Z,64.60
2022-11-07T07:08:33.957Z,64.40
2022-11-07T07:11:09.242Z,64.30
2022-11-07T07:13:37.161Z,64.20
2022-11-07T07:16:04.563Z,63.80
2022-11-07T07:18:31.705Z,63.70
2022-11-07T07:21:07.542Z,63.50
2022-11-07T07:23:34.999Z,63.30
2022-11-07T07:26:02.838Z,63.90
2022-11-07T07:28:30.018Z,62.90
2022-11-07T07:31:15.041Z,63.40
2022-11-07T07:33:42.975Z,63.00
2022-11-07T07:36:10.763Z,62.80
2022-11-07T07:38:37.785Z,61.70
2022-11-07T07:41:05.135Z,62.20
2022-11-07T07:43:32.278Z,62.20
2022-11-07T07:46:04.978Z,62.00
2022-11-07T07:48:32.526Z,62.90
2022-11-07T07:50:59.625Z,62.00
2022-11-07T07:53:26.609Z,62.70
2022-11-07T07:55:58.142Z,62.60
2022-11-07T07:58:25.982Z,62.30
2022-11-07T08:00:54.391Z,62.20
2022-11-07T08:03:21.307Z,62.70
2022-11-07T08:05:56.901Z,61.80
2022-11-07T08:08:25.343Z,61.90
2022-11-07T08:10:55.247Z,62.30
2022-11-07T08:13:24.143Z,62.40
2022-11-07T08:15:52.729Z,61.70
2022-11-07T08:18:21.978Z,61.70
2022-11-07T08:20:56.351Z,61.90
2022-11-07T08:23:24.523Z,61.70
2022-11-07T08:25:58.669Z,62.30
2022-11-07T08:28:31.822Z,62.10
2022-11-07T08:31:12.044Z,62.50
2022-11-07T08:33:39.555Z,62.20
2022-11-07T08:36:07.589Z,62.40
2022-11-07T08:38:35.801Z,61.60
2022-11-07T08:41:03.127Z,63.20
2022-11-07T08:43:30.169Z,62.30
2022-11-07T08:45:57.164Z,62.00
2022-11-07T08:48:24.525Z,62.00
2022-11-07T08:50:56.110Z,61.90
2022-11-07T08:53:24.267Z,62.20
2022-11-07T08:55:51.318Z,61.70
2022-11-07T08:58:19.404Z,62.30
2022-11-07T09:00:46.481Z,61.10
2022-11-07T09:06:01.834Z,61.90
2022-11-07T09:08:28.910Z,62.10
2022-11-07T09:10:55.850Z,61.70
2022-11-07T09:13:22.826Z,61.80
2022-11-07T09:15:51.785Z,62.00
2022-11-07T09:18:19.917Z,61.80
2022-11-07T09:20:47.482Z,61.60
2022-11-07T09:23:14.816Z,61.80
2022-11-07T09:25:42.065Z,61.90
2022-11-07T09:28:09.205Z,61.60
2022-11-07T09:30:36.058Z,62.00
2022-11-07T09:33:03.138Z,61.90
2022-11-07T09:35:30.047Z,62.40
2022-11-07T09:37:56.971Z,61.20
2022-11-07T09:41:01.779Z,61.90
2022-11-07T09:43:34.695Z,62.20
2022-11-07T09:46:32.407Z,61.70
2022-11-07T09:49:19.974Z,60.90
2022-11-07T09:51:59.383Z,61.30
2022-11-07T09:54:33.203Z,60.30
2022-11-07T09:57:00.959Z,61.50
2022-11-07T09:59:39.374Z,62.20
2022-11-07T10:02:21.789Z,60.90
2022-11-07T10:04:56.326Z,62.00
2022-11-07T10:07:30.695Z,62.20
2022-11-07T10:10:17.588Z,61.90
2022-11-07T10:12:46.980Z,61.40
2022-11-07T10:15:27.509Z,61.30
2022-11-07T10:18:09.824Z,61.20
2022-11-07T10:20:39.661Z,61.50
2022-11-07T10:23:09.394Z,61.30
2022-11-07T10:25:51.872Z,61.10
2022-11-07T10:28:20.530Z,60.80
2022-11-07T10:30:55.519Z,61.80
2022-11-07T10:33:41.214Z,61.50
2022-11-07T10:36:27.098Z,60.60
2022-11-07T10:38:54.372Z,60.80
2022-11-07T10:41:25.192Z,61.20
2022-11-07T10:44:03.555Z,60.80
2022-11-07T10:46:42.776Z,61.40
2022-11-07T10:49:32.949Z,61.50
2022-11-07T10:52:17.533Z,60.90
2022-11-07T10:54:47.149Z,61.50
2022-11-07T10:57:17.701Z,62.00
2022-11-07T11:00:07.993Z,61.30
2022-11-07T11:02:47.029Z,61.20
2022-11-07T11:05:25.451Z,61.60
2022-11-07T11:07:56.097Z,61.00
2022-11-07T11:10:27.332Z,61.20
2022-11-07T11:12:54.812Z,60.90
2022-11-07T11:15:25.267Z,60.60
2022-11-07T11:18:07.530Z,60.60
2022-11-07T11:20:34.546Z,61.80
2022-11-07T11:23:03.398Z,60.90
2022-11-07T11:25:30.291Z,60.70
2022-11-07T11:28:08.259Z,61.60
2022-11-07T11:30:37.091Z,61.60
2022-11-07T11:33:11.619Z,61.70
2022-11-07T11:35:53.704Z,61.00
2022-11-07T11:38:26.199Z,61.00
2022-11-07T11:41:06.105Z,61.00
2022-11-07T11:43:48.590Z,60.30
2022-11-07T11:46:35.969Z,61.00
2022-11-07T11:49:13.556Z,60.90
2022-11-07T11:52:12.229Z,60.80
2022-11-07T11:54:39.204Z,60.50
2022-11-07T11:57:16.075Z,60.80
2022-11-07T12:00:02.305Z,61.20
2022-11-07T12:02:40.418Z,60.90
2022-11-07T12:05:21.143Z,61.20
2022-11-07T12:08:00.862Z,61.20
2022-11-07T12:10:30.516Z,61.20
2022-11-07T12:13:11.537Z,61.90
2022-11-07T12:16:06.937Z,60.90
2022-11-07T12:18:43.523Z,61.20
2022-11-07T12:21:43.485Z,61.20
2022-11-07T12:24:25.637Z,61.70
2022-11-07T12:27:16.734Z,60.80
2022-11-07T12:30:03.204Z,61.40
2022-11-07T12:32:41.421Z,61.50
2022-11-07T12:35:33.993Z,61.40
2022-11-07T12:38:29.716Z,61.20
2022-11-07T12:41:44.041Z,61.60
2022-11-07T12:44:26.122Z,61.30
2022-11-07T12:47:00.234Z,62.20
2022-11-07T12:49:45.607Z,62.10
2022-11-07T12:52:17.990Z,61.50
2022-11-07T12:55:00.146Z,61.90
2022-11-07T12:57:37.330Z,61.70
2022-11-07T13:00:29.555Z,61.10
2022-11-07T13:03:08.399Z,61.80
2022-11-07T13:06:05.520Z,62.00
2022-11-07T13:09:01.880Z,61.70
2022-11-07T13:11:55.368Z,61.60
2022-11-07T13:14:43.386Z,61.60
2022-11-07T13:17:21.296Z,61.90
2022-11-07T13:20:20.303Z,61.40
2022-11-07T13:22:58.466Z,60.90
2022-11-07T13:25:29.723Z,61.50
2022-11-07T13:27:56.607Z,61.60
2022-11-07T13:30:35.332Z,61.60
2022-11-07T13:33:02.731Z,62.10
2022-11-07T13:35:33.940Z,62.30
2022-11-07T13:38:12.788Z,62.20
2022-11-07T13:41:03.940Z,61.90
2022-11-07T13:43:55.615Z,61.70
2022-11-07T13:46:39.043Z,61.50
2022-11-07T13:49:17.100Z,61.70
2022-11-07T13:51:49.850Z,61.80
2022-11-07T13:54:29.426Z,61.20
2022-11-07T13:57:01.038Z,61.50
2022-11-07T13:59:55.843Z,61.50
2022-11-07T14:02:28.349Z,61.60
2022-11-07T14:05:17.293Z,61.90
2022-11-07T14:07:51.234Z,61.30
2022-11-07T14:10:37.451Z,61.40
2022-11-07T14:13:10.686Z,61.30
2022-11-07T14:15:45.400Z,61.80
2022-11-07T14:18:16.224Z,61.70
2022-11-07T14:20:50.946Z,61.50
2022-11-07T14:23:26.024Z,61.50
2022-11-07T14:26:17.761Z,62.10
2022-11-07T14:28:44.818Z,61.80
2022-11-07T14:31:26.686Z,61.80
2022-11-07T14:34:02.494Z,61.90
2022-11-07T14:36:30.465Z,62.00
2022-11-07T14:39:11.291Z,62.20
2022-11-07T14:41:42.830Z,61.80
2022-11-07T14:44:47.580Z,61.20
2022-11-07T14:47:21.918Z,61.70
2022-11-07T14:49:51.525Z,61.60
2022-11-07T14:53:04.934Z,61.40
2022-11-07T14:55:35.894Z,61.70
2022-11-07T14:58:05.155Z,62.10
2022-11-07T15:00:33.239Z,61.80
2022-11-07T15:03:01.052Z,61.60
2022-11-07T15:05:36.988Z,61.80
2022-11-07T15:08:04.058Z,61.60
2022-11-07T15:10:38.053Z,62.30
2022-11-07T15:13:21.259Z,62.30
2022-11-07T15:16:22.410Z,62.10
2022-11-07T15:18:58.864Z,62.10
2022-11-07T15:21:38.250Z,61.70
2022-11-07T15:24:31.981Z,62.00
2022-11-07T15:27:01.375Z,61.20
2022-11-07T15:29:33.697Z,61.50
2022-11-07T15:32:16.614Z,61.40
2022-11-07T15:37:31.472Z,61.30
2022-11-07T15:39:58.281Z,61.50
2022-11-07T15:42:25.168Z,61.20
2022-11-07T15:44:52.059Z,61.10
2022-11-07T15:47:22.085Z,61.20
2022-11-07T15:49:49.645Z,61.00
2022-11-07T15:52:16.561Z,61.50
2022-11-07T15:54:43.492Z,61.10
2022-11-07T15:57:12.548Z,61.30
2022-11-07T15:59:39.597Z,61.20
2022-11-07T16:02:14.935Z,61.70
2022-11-07T16:04:42.227Z,61.40
2022-11-07T16:07:17.439Z,61.50
2022-11-07T16:09:45.895Z,61.30
2022-11-07T16:12:13.666Z,61.40
2022-11-07T16:14:44.835Z,61.00
2022-11-07T16:17:15.364Z,61.70
2022-11-07T16:19:42.444Z,61.20
2022-11-07T16:22:14.425Z,61.50
2022-11-07T16:24:41.570Z,61.40
2022-11-07T16:27:10.611Z,61.40
2022-11-07T16:29:37.541Z,61.50
2022-11-07T16:32:04.608Z,61.10
2022-11-07T16:34:31.703Z,60.80
2022-11-07T16:36:58.579Z,61.10
2022-11-07T16:39:25.422Z,61.20
2022-11-07T16:41:52.220Z,60.90
2022-11-07T16:44:25.599Z,60.80
2022-11-07T16:46:56.097Z,60.80
2022-11-07T16:49:32.411Z,61.20
2022-11-07T16:51:59.888Z,61.00
2022-11-07T16:54:26.780Z,61.30
2022-11-07T16:56:53.834Z,61.60
2022-11-07T16:59:22.556Z,61.60
2022-11-07T17:01:53.193Z,61.30
2022-11-07T17:04:20.296Z,61.40
2022-11-07T17:06:47.737Z,61.20
2022-11-07T17:09:20.527Z,61.90
2022-11-07T17:11:47.497Z,62.80
2022-11-07T17:14:14.407Z,62.00
2022-11-07T17:16:46.684Z,62.20
2022-11-07T17:19:14.927Z,61.30
2022-11-07T17:21:49.467Z,61.20
2022-11-07T17:24:16.838Z,61.30
2022-11-07T17:26:43.757Z,61.70
2022-11-07T17:29:13.484Z,61.30
2022-11-07T17:31:41.341Z,61.70
2022-11-07T17:34:08.791Z,61.20
2022-11-07T17:36:45.957Z,61.60
2022-11-07T17:39:18.673Z,60.50
2022-11-07T17:41:48.519Z,61.90
2022-11-07T17:44:16.971Z,61.00
2022-11-07T17:46:47.164Z,61.40
2022-11-07T17:49:17.501Z,61.90
2022-11-07T17:51:44.560Z,61.80
2022-11-07T17:54:13.264Z,61.20
2022-11-07T17:56:40.829Z,61.20
2022-11-07T17:59:12.654Z,61.30
2022-11-07T18:01:40.683Z,61.00
2022-11-07T18:04:09.486Z,61.40
2022-11-07T18:06:38.453Z,60.90
2022-11-07T18:09:07.239Z,61.30
2022-11-07T18:11:35.547Z,61.50
2022-11-07T18:14:02.676Z,61.70
2022-11-07T18:16:34.071Z,62.00
2022-11-07T18:19:02.150Z,61.60
2022-11-07T18:21:29.393Z,61.20
2022-11-07T18:23:56.983Z,61.10
2022-11-07T18:26:33.401Z,61.10
2022-11-07T18:29:02.664Z,61.30
2022-11-07T18:31:29.654Z,61.10
2022-11-07T18:33:58.437Z,60.00
2022-11-07T18:36:26.113Z,60.70
2022-11-07T18:38:52.963Z,61.10
2022-11-07T18:41:22.153Z,61.00
2022-11-07T18:43:49.675Z,61.00
2022-11-07T18:46:19.370Z,60.50
2022-11-07T18:48:46.671Z,61.00
2022-11-07T18:51:22.552Z,61.00
2022-11-07T18:53:51.199Z,61.10
2022-11-07T18:56:18.631Z,60.70
2022-11-07T18:58:45.751Z,61.00
2022-11-07T19:01:15.665Z,60.80
2022-11-07T19:03:42.988Z,61.40
2022-11-07T19:06:15.363Z,61.10
2022-11-07T19:08:43.745Z,61.40
2022-11-07T19:11:12.894Z,61.20
2022-11-07T19:13:42.394Z,61.40
2022-11-07T19:16:12.300Z,61.00
2022-11-07T19:18:39.787Z,60.90
2022-11-07T19:21:06.778Z,61.10
2022-11-07T19:23:36.862Z,61.50
2022-11-07T19:26:04.905Z,60.40
2022-11-07T19:28:32.162Z,62.00
2022-11-07T19:31:05.995Z,61.10
2022-11-07T19:33:33.410Z,60.90
2022-11-07T19:36:03.927Z,61.10
2022-11-07T19:38:31.299Z,60.70
2022-11-07T19:40:58.600Z,61.70
2022-11-07T19:43:25.642Z,61.00
2022-11-07T19:45:52.500Z,60.40
2022-11-07T19:48:20.307Z,60.60
2022-11-07T19:50:47.244Z,60.30
2022-11-07T19:53:14.419Z,60.20
2022-11-07T19:55:41.409Z,60.90
2022-11-07T19:58:08.316Z,60.20
2022-11-07T20:00:35.282Z,59.90
2022-11-07T20:03:02.408Z,60.90
2022-11-07T20:05:34.206Z,60.00
2022-11-07T20:08:04.963Z,60.90
2022-11-07T20:10:33.122Z,60.30
2022-11-07T20:13:00.060Z,60.50
2022-11-07T20:15:28.356Z,60.70
2022-11-07T20:17:55.244Z,60.10
2022-11-07T20:20:22.120Z,60.20
2022-11-07T20:22:49.225Z,60.40
2022-11-07T20:25:16.280Z,61.00
2022-11-07T20:27:43.314Z,60.20
2022-11-07T20:30:11.334Z,59.90
2022-11-07T20:32:40.280Z,59.60
2022-11-07T20:35:07.923Z,60.90
2022-11-07T20:37:35.952Z,60.30
2022-11-07T20:40:04.506Z,60.20
2022-11-07T20:42:31.491Z,59.60
2022-11-07T20:44:58.354Z,59.50
2022-11-07T20:47:25.278Z,60.00
2022-11-07T20:49:52.135Z,59.20
2022-11-07T20:52:18.960Z,59.40
2022-11-07T20:54:45.985Z,60.00
2022-11-07T20:57:12.983Z,59.30
2022-11-07T20:59:41.344Z,60.00
2022-11-07T21:02:13.306Z,59.50
2022-11-07T21:05:03.079Z,60.20
2022-11-07T21:07:27.162Z,60.90
2022-11-07T21:09:54.616Z,59.70
2022-11-07T21:12:21.448Z,60.40
2022-11-07T21:14:48.281Z,59.80
2022-11-07T21:17:16.138Z,60.30
2022-11-07T21:19:42.946Z,59.80
2022-11-07T21:22:09.760Z,60.10
2022-11-07T21:24:36.567Z,60.30
2022-11-07T21:27:03.865Z,60.30
2022-11-07T21:29:31.860Z,59.90
2022-11-07T21:31:58.974Z,60.30
2022-11-07T21:34:25.859Z,60.30
2022-11-07T21:36:52.710Z,60.70
2022-11-07T21:39:19.524Z,60.30
2022-11-07T21:41:47.151Z,59.90
2022-11-07T21:44:13.949Z,59.80
2022-11-07T21:46:40.855Z,60.10
2022-11-07T21:49:08.298Z,60.70
2022-11-07T21:51:35.600Z,60.10
2022-11-07T21:54:03.850Z,60.10
2022-11-07T21:56:33.670Z,60.70
2022-11-07T21:59:03.889Z,60.60
2022-11-07T22:01:35.082Z,60.60
2022-11-07T22:04:07.609Z,61.20
2022-11-07T22:06:44.404Z,60.70
2022-11-07T22:09:14.797Z,60.40
2022-11-07T22:11:41.770Z,60.60
2022-11-07T22:14:12.478Z,60.90
2022-11-07T22:16:39.331Z,61.10
2022-11-07T22:19:11.242Z,60.70
2022-11-07T22:21:39.386Z,61.10
2022-11-07T22:24:06.478Z,60.90
2022-11-07T22:26:33.494Z,61.10
2022-11-07T22:29:00.508Z,61.30
2022-11-07T22:31:30.324Z,61.00
2022-11-07T22:33:59.543Z,60.60
2022-11-07T22:36:26.885Z,61.20
2022-11-07T22:38:53.823Z,61.00
2022-11-07T22:41:22.981Z,61.00
2022-11-07T22:43:50.428Z,61.00
2022-11-07T22:46:21.354Z,61.20
2022-11-07T22:48:48.939Z,61.50
2022-11-07T22:51:21.520Z,61.00
2022-11-07T22:53:48.901Z,61.50
2022-11-07T22:56:18.545Z,60.70
2022-11-07T22:58:46.812Z,60.80
2022-11-07T23:01:19.048Z,61.40
2022-11-07T23:03:47.068Z,61.50
2022-11-07T23:06:14.347Z,60.80
2022-11-07T23:08:41.420Z,61.40
2022-11-07T23:14:02.629Z,60.90
2022-11-07T23:16:35.034Z,60.80
2022-11-07T23:19:04.179Z,60.90
2022-11-07T23:21:31.482Z,61.20
2022-11-07T23:24:00.026Z,60.70
2022-11-07T23:26:33.802Z,61.30
2022-11-07T23:29:23.132Z,60.50
2022-11-07T23:31:51.531Z,60.90
2022-11-07T23:34:19.582Z,61.10
2022-11-07T23:36:46.516Z,61.00
2022-11-07T23:39:19.150Z,60.90
2022-11-07T23:41:46.715Z,60.90
2022-11-07T23:44:14.788Z,60.90
2022-11-07T23:47:01.174Z,61.20
2022-11-07T23:49:54.743Z,60.90
2022-11-07T23:52:21.914Z,61.70
2022-11-07T23:55:07.637Z,61.40
2022-11-07T23:57:56.148Z,61.60
